createdAt,value
2023-05-08T00:01:21.132Z,13.00
2023-05-08T00:03:24.494Z,13.13
2023-05-08T00:05:27.375Z,13.67
2023-05-08T00:07:30.167Z,12.47
2023-05-08T00:09:32.948Z,12.70
2023-05-08T00:11:35.709Z,13.47
2023-05-08T00:13:38.474Z,12.90
2023-05-08T00:15:42.549Z,14.13
2023-05-08T00:17:45.415Z,12.10
2023-05-08T00:19:48.174Z,14.43
2023-05-08T00:21:50.997Z,14.63
2023-05-08T00:23:53.945Z,12.90
2023-05-08T00:25:56.679Z,13.63
2023-05-08T00:27:59.517Z,13.53
2023-05-08T00:30:02.293Z,13.60
2023-05-08T00:32:06.912Z,14.07
2023-05-08T00:34:09.833Z,14.13
2023-05-08T00:36:12.649Z,13.73
2023-05-08T00:38:15.666Z,13.67
2023-05-08T00:40:18.407Z,11.97
2023-05-08T00:42:21.247Z,12.43
2023-05-08T00:44:23.963Z,13.20
2023-05-08T00:46:27.336Z,13.10
2023-05-08T00:48:35.061Z,13.17
2023-05-08T00:50:37.900Z,13.57
2023-05-08T00:52:41.345Z,13.93
2023-05-08T00:54:44.684Z,14.73
2023-05-08T00:56:48.071Z,14.17
2023-05-08T00:58:52.271Z,14.10
2023-05-08T01:00:57.322Z,14.13
2023-05-08T01:03:01.681Z,14.57
2023-05-08T01:05:07.659Z,14.20
2023-05-08T01:07:11.453Z,14.93
2023-05-08T01:09:14.189Z,14.33
2023-05-08T01:11:24.646Z,14.00
2023-05-08T01:13:37.830Z,13.63
2023-05-08T01:15:48.460Z,12.87
2023-05-08T01:18:02.042Z,12.17
2023-05-08T01:20:25.527Z,13.43
2023-05-08T01:22:55.788Z,12.53
2023-05-08T01:25:30.625Z,12.17
2023-05-08T01:27:50.996Z,12.83
2023-05-08T01:30:30.483Z,13.47
2023-05-08T01:32:38.117Z,11.87
2023-05-08T01:34:47.633Z,11.87
2023-05-08T01:36:55.772Z,11.33
2023-05-08T01:39:11.058Z,12.20
2023-05-08T01:41:18.113Z,11.27
2023-05-08T01:43:27.555Z,11.23
2023-05-08T01:45:34.105Z,11.47
2023-05-08T01:47:42.459Z,10.13
2023-05-08T01:49:49.050Z,11.40
2023-05-08T01:52:00.121Z,10.70
2023-05-08T01:54:10.013Z,9.97
2023-05-08T01:56:28.223Z,10.63
2023-05-08T01:58:33.310Z,9.87
2023-05-08T02:00:36.834Z,10.60
2023-05-08T02:02:41.813Z,10.83
2023-05-08T02:04:45.807Z,11.03
2023-05-08T02:06:48.743Z,11.80
2023-05-08T02:08:54.321Z,11.50
2023-05-08T02:10:58.762Z,11.67
2023-05-08T02:13:03.485Z,11.10
2023-05-08T02:15:09.123Z,11.27
2023-05-08T02:17:13.597Z,11.50
2023-05-08T02:19:19.323Z,12.13
2023-05-08T02:21:23.489Z,12.47
2023-05-08T02:23:27.580Z,12.13
2023-05-08T02:25:32.117Z,11.83
2023-05-08T02:27:35.680Z,11.63
2023-05-08T02:29:39.006Z,11.40
2023-05-08T02:31:43.086Z,11.97
2023-05-08T02:33:46.735Z,11.87
2023-05-08T02:35:52.438Z,10.93
2023-05-08T02:37:57.229Z,12.33
2023-05-08T02:40:00.344Z,11.27
2023-05-08T02:42:03.970Z,10.80
2023-05-08T02:44:07.209Z,11.87
2023-05-08T02:46:13.549Z,16.53
2023-05-08T02:48:23.832Z,14.43
2023-05-08T02:50:36.292Z,15.63
2023-05-08T02:52:45.789Z,12.07
2023-05-08T02:54:59.414Z,11.33
2023-05-08T02:57:07.721Z,10.17
2023-05-08T02:59:19.980Z,14.77
2023-05-08T03:01:29.001Z,22.63
2023-05-08T03:03:38.003Z,25.17
2023-05-08T03:05:45.694Z,17.60
2023-05-08T03:07:53.837Z,11.40
2023-05-08T03:10:00.202Z,16.83
2023-05-08T03:12:08.953Z,12.33
2023-05-08T03:14:17.082Z,11.30
2023-05-08T03:16:25.492Z,11.90
2023-05-08T03:18:37.734Z,11.30
2023-05-08T03:20:45.536Z,13.83
2023-05-08T03:22:51.874Z,12.90
2023-05-08T03:24:55.798Z,10.67
2023-05-08T03:27:00.295Z,11.57
2023-05-08T03:29:04.513Z,11.00
2023-05-08T03:31:09.833Z,11.63
2023-05-08T03:33:14.086Z,11.43
2023-05-08T03:35:17.622Z,14.00
2023-05-08T03:37:20.925Z,11.90
2023-05-08T03:39:26.737Z,12.00
2023-05-08T03:41:30.949Z,12.50
2023-05-08T03:43:35.065Z,12.70
2023-05-08T03:45:39.296Z,11.97
2023-05-08T03:47:44.385Z,15.43
2023-05-08T03:49:48.418Z,11.80
2023-05-08T03:51:51.900Z,11.50
2023-05-08T03:53:54.697Z,10.40
2023-05-08T03:56:00.191Z,11.57
2023-05-08T03:58:16.145Z,13.77
2023-05-08T04:00:26.370Z,12.63
2023-05-08T04:02:38.787Z,11.50
2023-05-08T04:04:46.515Z,7.43
2023-05-08T04:07:00.600Z,8.00
2023-05-08T04:09:14.340Z,8.93
2023-05-08T04:11:26.795Z,8.17
2023-05-08T04:13:33.416Z,13.53
2023-05-08T04:15:40.399Z,9.43
2023-05-08T04:17:46.537Z,9.87
2023-05-08T04:19:57.003Z,8.50
2023-05-08T04:22:09.709Z,7.73
2023-05-08T04:24:16.021Z,10.30
2023-05-08T04:26:22.400Z,10.13
2023-05-08T04:28:26.996Z,13.73
2023-05-08T04:30:30.846Z,9.97
2023-05-08T04:32:35.106Z,9.40
2023-05-08T04:34:38.160Z,7.60
2023-05-08T04:36:41.440Z,8.27
2023-05-08T04:38:44.868Z,8.80
2023-05-08T04:40:48.480Z,9.17
2023-05-08T04:42:53.044Z,8.80
2023-05-08T04:44:57.327Z,10.47
2023-05-08T04:47:00.187Z,10.97
2023-05-08T04:49:02.951Z,12.90
2023-05-08T04:51:07.088Z,10.87
2023-05-08T04:53:09.846Z,11.77
2023-05-08T04:55:13.278Z,14.83
2023-05-08T04:57:16.288Z,13.93
2023-05-08T04:59:20.499Z,14.47
2023-05-08T05:01:23.387Z,18.13
2023-05-08T05:03:26.216Z,13.53
2023-05-08T05:05:29.015Z,14.93
2023-05-08T05:07:31.914Z,14.83
2023-05-08T05:09:36.983Z,13.83
2023-05-08T05:11:40.399Z,15.07
2023-05-08T05:13:43.223Z,14.93
2023-05-08T05:15:47.554Z,20.17
2023-05-08T05:17:51.411Z,16.23
2023-05-08T05:19:54.201Z,16.07
2023-05-08T05:21:57.450Z,16.87
2023-05-08T05:24:00.911Z,16.53
2023-05-08T05:26:03.756Z,17.93
2023-05-08T05:28:07.171Z,15.93
2023-05-08T05:30:10.651Z,17.73
2023-05-08T05:32:15.245Z,19.33
2023-05-08T05:34:18.503Z,16.90
2023-05-08T05:36:21.374Z,17.10
2023-05-08T05:38:24.394Z,18.27
2023-05-08T05:40:27.257Z,20.43
2023-05-08T05:42:30.164Z,17.07
2023-05-08T05:44:32.961Z,19.93
2023-05-08T05:46:35.935Z,17.23
2023-05-08T05:48:41.020Z,16.03
2023-05-08T05:50:45.462Z,19.03
2023-05-08T05:52:49.387Z,20.27
2023-05-08T05:54:52.703Z,17.63
2023-05-08T05:56:55.960Z,19.50
2023-05-08T05:58:58.688Z,18.47
2023-05-08T06:01:02.264Z,17.77
2023-05-08T06:03:06.459Z,19.50
2023-05-08T06:05:11.558Z,21.83
2023-05-08T06:07:14.676Z,21.43
2023-05-08T06:09:17.538Z,18.60
2023-05-08T06:11:20.516Z,18.63
2023-05-08T06:13:23.366Z,17.73
2023-05-08T06:15:27.033Z,17.03
2023-05-08T06:17:30.477Z,17.60
2023-05-08T06:19:33.202Z,17.33
2023-05-08T06:21:37.386Z,17.17
2023-05-08T06:23:40.106Z,16.63
2023-05-08T06:25:42.836Z,15.93
2023-05-08T06:27:45.594Z,16.73
2023-05-08T06:29:48.429Z,16.60
2023-05-08T06:31:51.133Z,18.63
2023-05-08T06:33:53.856Z,15.33
2023-05-08T06:35:56.841Z,14.90
2023-05-08T06:38:01.405Z,14.73
2023-05-08T06:40:12.057Z,14.60
2023-05-08T06:42:15.589Z,15.30
2023-05-08T06:44:21.593Z,14.10
2023-05-08T06:46:24.647Z,13.97
2023-05-08T06:48:29.091Z,13.57
2023-05-08T06:50:32.203Z,13.60
2023-05-08T06:52:34.965Z,14.67
2023-05-08T06:54:39.149Z,16.37
2023-05-08T06:56:41.901Z,12.83
2023-05-08T06:58:48.431Z,14.60
2023-05-08T07:01:00.806Z,12.47
2023-05-08T07:03:03.997Z,13.37
2023-05-08T07:05:07.957Z,15.57
2023-05-08T07:07:11.590Z,13.33
2023-05-08T07:09:14.473Z,12.83
2023-05-08T07:11:18.568Z,12.10
2023-05-08T07:13:22.088Z,12.20
2023-05-08T07:15:26.345Z,12.90
2023-05-08T07:17:30.780Z,14.03
2023-05-08T07:19:33.938Z,15.20
2023-05-08T07:21:36.823Z,12.80
2023-05-08T07:23:39.532Z,11.90
2023-05-08T07:25:42.232Z,11.77
2023-05-08T07:27:46.387Z,10.83
2023-05-08T07:29:49.068Z,11.03
2023-05-08T07:31:52.166Z,10.97
2023-05-08T07:33:54.982Z,10.30
2023-05-08T07:35:58.171Z,11.07
2023-05-08T07:38:00.953Z,10.07
2023-05-08T07:40:03.832Z,10.73
2023-05-08T07:42:06.762Z,10.63
2023-05-08T07:44:10.857Z,11.63
2023-05-08T07:46:18.489Z,13.03
2023-05-08T07:48:21.276Z,12.10
2023-05-08T07:50:25.602Z,12.83
2023-05-08T07:52:28.520Z,14.43
2023-05-08T07:54:31.277Z,13.80
2023-05-08T07:56:34.122Z,12.10
2023-05-08T07:58:36.900Z,12.30
2023-05-08T08:00:41.148Z,11.80
2023-05-08T08:02:44.618Z,11.37
2023-05-08T08:04:47.645Z,11.80
2023-05-08T08:06:50.608Z,10.40
2023-05-08T08:08:53.312Z,12.40
2023-05-08T08:10:56.049Z,12.47
2023-05-08T08:13:01.527Z,11.97
2023-05-08T08:15:04.717Z,12.43
2023-05-08T08:17:08.932Z,11.57
2023-05-08T08:19:11.736Z,12.00
2023-05-08T08:21:14.502Z,12.40
2023-05-08T08:23:17.294Z,11.60
2023-05-08T08:25:20.879Z,12.03
2023-05-08T08:27:24.088Z,11.10
2023-05-08T08:29:27.012Z,12.07
2023-05-08T08:31:29.770Z,12.23
2023-05-08T08:33:33.908Z,10.67
2023-05-08T08:35:36.709Z,11.57
2023-05-08T08:37:39.515Z,11.90
2023-05-08T08:39:42.267Z,11.43
2023-05-08T08:41:45.048Z,11.37
2023-05-08T08:43:47.829Z,10.73
2023-05-08T08:45:50.600Z,12.37
2023-05-08T08:47:53.897Z,11.07
2023-05-08T08:50:01.752Z,10.57
2023-05-08T08:52:11.923Z,11.33
2023-05-08T08:54:18.450Z,11.83
2023-05-08T08:56:24.636Z,13.53
2023-05-08T08:58:32.631Z,12.10
2023-05-08T09:00:38.352Z,12.33
2023-05-08T09:02:41.315Z,7.20
2023-05-08T09:04:44.723Z,9.00
2023-05-08T09:06:50.760Z,6.40
2023-05-08T09:08:56.297Z,5.30
2023-05-08T09:10:59.386Z,5.67
2023-05-08T09:13:02.209Z,5.40
2023-05-08T09:15:06.773Z,5.53
2023-05-08T09:17:10.446Z,5.40
2023-05-08T09:19:15.863Z,4.87
2023-05-08T09:21:22.159Z,5.30
2023-05-08T09:23:26.358Z,4.37
2023-05-08T09:25:42.547Z,5.30
2023-05-08T09:27:47.953Z,5.27
2023-05-08T09:30:02.908Z,6.20
2023-05-08T09:32:06.165Z,6.10
2023-05-08T09:34:09.566Z,7.13
2023-05-08T09:36:26.682Z,5.77
2023-05-08T09:38:38.189Z,8.03
2023-05-08T09:40:40.946Z,7.10
2023-05-08T09:42:43.900Z,11.53
2023-05-08T09:44:49.403Z,10.17
2023-05-08T09:46:52.172Z,10.13
2023-05-08T09:48:56.436Z,9.07
2023-05-08T09:51:06.806Z,8.90
2023-05-08T09:53:09.557Z,9.63
2023-05-08T09:55:13.775Z,11.07
2023-05-08T09:57:17.008Z,10.43
2023-05-08T09:59:27.842Z,10.23
2023-05-08T10:01:33.004Z,11.47
2023-05-08T10:03:48.076Z,12.57
2023-05-08T10:05:50.865Z,11.80
2023-05-08T10:07:53.755Z,12.43
2023-05-08T10:10:01.486Z,12.67
2023-05-08T10:12:06.909Z,11.80
2023-05-08T10:14:10.112Z,11.97
2023-05-08T10:16:17.105Z,12.30
2023-05-08T10:18:23.117Z,11.37
2023-05-08T10:20:29.500Z,12.30
2023-05-08T10:22:37.343Z,11.80
2023-05-08T10:24:42.039Z,11.83
2023-05-08T10:27:05.549Z,11.53
2023-05-08T10:29:18.097Z,11.17
2023-05-08T10:31:25.692Z,11.73
2023-05-08T10:33:32.405Z,11.30
2023-05-08T10:35:35.375Z,12.40
2023-05-08T10:37:39.489Z,12.30
2023-05-08T10:39:43.907Z,12.23
2023-05-08T10:41:48.039Z,11.20
2023-05-08T10:43:51.701Z,12.13
2023-05-08T10:45:57.472Z,12.23
2023-05-08T10:48:06.135Z,13.73
2023-05-08T10:50:20.236Z,9.33
2023-05-08T10:52:31.059Z,8.73
2023-05-08T10:54:46.251Z,7.50
2023-05-08T10:56:50.155Z,8.37
2023-05-08T10:58:57.079Z,7.80
2023-05-08T11:01:15.109Z,9.00
2023-05-08T11:03:30.453Z,7.80
2023-05-08T11:05:47.372Z,8.00
2023-05-08T11:07:57.419Z,7.90
2023-05-08T11:10:08.794Z,9.77
2023-05-08T11:12:23.920Z,8.57
2023-05-08T11:14:27.932Z,8.10
2023-05-08T11:17:02.899Z,8.07
2023-05-08T11:19:26.100Z,7.97
2023-05-08T11:21:28.740Z,10.13
2023-05-08T11:23:32.235Z,12.80
2023-05-08T11:25:43.428Z,13.10
2023-05-08T11:28:13.837Z,8.07
2023-05-08T11:30:20.777Z,6.77
2023-05-08T11:32:26.214Z,6.87
2023-05-08T11:34:49.849Z,7.03
2023-05-08T11:37:02.784Z,7.70
2023-05-08T11:39:12.624Z,8.03
2023-05-08T11:41:22.586Z,8.23
2023-05-08T11:43:27.142Z,7.40
2023-05-08T11:45:30.724Z,8.60
2023-05-08T11:47:39.147Z,6.90
2023-05-08T11:49:42.038Z,10.17
2023-05-08T11:51:48.174Z,8.13
2023-05-08T11:53:51.510Z,7.57
2023-05-08T11:55:54.792Z,7.30
2023-05-08T11:57:57.605Z,5.77
2023-05-08T12:00:05.046Z,6.23
2023-05-08T12:02:11.521Z,5.17
2023-05-08T12:04:14.580Z,5.10
2023-05-08T12:06:20.000Z,4.17
2023-05-08T12:08:24.197Z,3.80
2023-05-08T12:10:26.980Z,3.60
2023-05-08T12:12:39.262Z,4.53
2023-05-08T12:14:42.027Z,3.33
2023-05-08T12:16:44.819Z,3.57
2023-05-08T12:18:50.321Z,2.67
2023-05-08T12:20:54.087Z,4.37
2023-05-08T12:22:56.922Z,5.10
2023-05-08T12:25:01.030Z,3.37
2023-05-08T12:27:04.765Z,3.03
2023-05-08T12:29:08.628Z,2.80
2023-05-08T12:31:12.314Z,2.43
2023-05-08T12:33:16.132Z,2.77
2023-05-08T12:35:19.096Z,5.43
2023-05-08T12:37:27.684Z,10.23
2023-05-08T12:39:35.609Z,2.17
2023-05-08T12:41:47.648Z,2.63
2023-05-08T12:43:50.381Z,7.20
2023-05-08T12:45:53.412Z,7.20
2023-05-08T12:48:00.374Z,2.53
2023-05-08T12:50:03.224Z,4.20
2023-05-08T12:52:07.539Z,2.03
2023-05-08T12:54:10.309Z,8.33
2023-05-08T12:56:13.061Z,3.07
2023-05-08T12:58:17.944Z,2.60
2023-05-08T13:00:21.156Z,3.30
2023-05-08T13:02:26.360Z,2.70
2023-05-08T13:04:30.395Z,2.97
2023-05-08T13:06:33.286Z,2.20
2023-05-08T13:08:37.953Z,2.50
2023-05-08T13:10:49.098Z,2.20
2023-05-08T13:12:52.252Z,2.93
2023-05-08T13:14:56.500Z,3.23
2023-05-08T13:16:59.780Z,3.80
2023-05-08T13:19:02.668Z,2.80
2023-05-08T13:21:05.791Z,7.73
2023-05-08T13:23:08.564Z,3.73
2023-05-08T13:25:11.446Z,2.97
2023-05-08T13:27:14.703Z,2.57
2023-05-08T13:29:17.559Z,2.80
2023-05-08T13:31:21.659Z,2.80
2023-05-08T13:33:24.461Z,2.70
2023-05-08T13:35:28.398Z,2.40
2023-05-08T13:37:31.452Z,2.50
2023-05-08T13:39:37.757Z,5.90
2023-05-08T13:41:40.491Z,3.63
2023-05-08T13:43:43.445Z,3.20
2023-05-08T13:45:46.196Z,8.00
2023-05-08T13:47:51.290Z,3.47
2023-05-08T13:49:54.170Z,3.00
2023-05-08T13:51:57.317Z,3.37
2023-05-08T13:54:00.209Z,3.03
2023-05-08T13:56:03.098Z,11.27
2023-05-08T13:58:05.918Z,7.47
2023-05-08T14:00:10.265Z,14.97
2023-05-08T14:02:13.287Z,4.70
2023-05-08T14:04:19.131Z,5.37
2023-05-08T14:06:21.909Z,3.47
2023-05-08T14:08:24.726Z,3.83
2023-05-08T14:10:27.494Z,3.37
2023-05-08T14:12:30.389Z,6.60
2023-05-08T14:14:34.498Z,10.33
2023-05-08T14:16:37.612Z,8.60
2023-05-08T14:18:40.393Z,8.40
2023-05-08T14:20:49.001Z,4.23
2023-05-08T14:22:54.428Z,3.60
2023-05-08T14:24:57.113Z,9.27
2023-05-08T14:27:01.931Z,3.70
2023-05-08T14:29:04.935Z,4.10
2023-05-08T14:31:07.820Z,4.07
2023-05-08T14:33:10.642Z,5.63
2023-05-08T14:35:14.122Z,4.70
2023-05-08T14:37:18.859Z,4.57
2023-05-08T14:39:21.640Z,5.77
2023-05-08T14:41:28.318Z,6.23
2023-05-08T14:43:31.020Z,8.17
2023-05-08T14:45:33.747Z,5.33
2023-05-08T14:47:36.550Z,4.53
2023-05-08T14:49:39.231Z,4.70
2023-05-08T14:51:41.898Z,4.93
2023-05-08T14:53:46.067Z,5.00
2023-05-08T14:55:48.896Z,7.30
2023-05-08T14:57:52.004Z,5.00
2023-05-08T14:59:56.160Z,4.97
2023-05-08T15:01:58.908Z,4.80
2023-05-08T15:04:01.796Z,4.63
2023-05-08T15:06:05.641Z,6.10
2023-05-08T15:08:09.591Z,5.87
2023-05-08T15:10:14.474Z,5.70
2023-05-08T15:12:17.194Z,6.87
2023-05-08T15:14:19.895Z,7.93
2023-05-08T15:16:22.614Z,6.90
2023-05-08T15:18:28.380Z,7.13
2023-05-08T15:20:31.149Z,12.20
2023-05-08T15:22:33.905Z,7.30
2023-05-08T15:24:36.713Z,11.80
2023-05-08T15:26:40.776Z,16.23
2023-05-08T15:28:43.498Z,10.60
2023-05-08T15:30:46.818Z,15.13
2023-05-08T15:32:49.714Z,15.23
2023-05-08T15:34:52.560Z,7.97
2023-05-08T15:36:55.976Z,11.70
2023-05-08T15:38:58.804Z,8.40
2023-05-08T15:41:01.579Z,9.80
2023-05-08T15:43:05.682Z,7.77
2023-05-08T15:45:09.578Z,7.47
2023-05-08T15:47:12.284Z,9.43
2023-05-08T15:49:14.999Z,7.37
2023-05-08T15:51:17.846Z,7.37
2023-05-08T15:53:20.568Z,7.27
2023-05-08T15:55:23.579Z,7.27
2023-05-08T15:57:27.071Z,7.27
2023-05-08T15:59:31.198Z,7.97
2023-05-08T16:01:34.008Z,11.43
2023-05-08T16:03:36.959Z,11.57
2023-05-08T16:05:40.086Z,13.50
2023-05-08T16:07:43.745Z,12.83
2023-05-08T16:09:46.602Z,11.67
2023-05-08T16:11:49.404Z,10.93
2023-05-08T16:13:52.272Z,12.37
2023-05-08T16:15:56.402Z,13.10
2023-05-08T16:17:59.227Z,11.27
2023-05-08T16:20:03.762Z,12.70
2023-05-08T16:22:06.901Z,12.83
2023-05-08T16:24:09.758Z,13.50
2023-05-08T16:26:13.971Z,14.60
2023-05-08T16:28:16.690Z,21.40
2023-05-08T16:30:19.768Z,14.40
2023-05-08T16:32:23.838Z,16.63
2023-05-08T16:34:26.537Z,14.93
2023-05-08T16:36:29.290Z,15.70
2023-05-08T16:38:32.057Z,17.33
2023-05-08T16:40:34.877Z,14.77
2023-05-08T16:42:37.983Z,17.27
2023-05-08T16:44:40.700Z,20.23
2023-05-08T16:46:43.494Z,14.47
2023-05-08T16:48:48.311Z,15.33
2023-05-08T16:50:51.295Z,12.77
2023-05-08T16:52:54.050Z,12.27
2023-05-08T16:54:56.732Z,11.47
2023-05-08T16:56:59.533Z,11.70
2023-05-08T16:59:05.991Z,11.73
2023-05-08T17:01:08.726Z,11.87
2023-05-08T17:03:11.549Z,11.50
2023-05-08T17:05:15.755Z,11.93
2023-05-08T17:07:19.121Z,11.03
2023-05-08T17:09:21.836Z,10.97
2023-05-08T17:11:24.517Z,10.57
2023-05-08T17:13:27.306Z,11.33
2023-05-08T17:15:30.389Z,11.73
2023-05-08T17:17:33.144Z,13.33
2023-05-08T17:19:36.209Z,12.47
2023-05-08T17:21:40.257Z,11.70
2023-05-08T17:23:42.938Z,13.90
2023-05-08T17:25:45.612Z,12.77
2023-05-08T17:27:48.272Z,13.13
2023-05-08T17:29:50.995Z,13.10
2023-05-08T17:31:53.703Z,13.93
2023-05-08T17:33:56.396Z,13.47
2023-05-08T17:35:59.064Z,23.43
2023-05-08T17:38:03.046Z,16.30
2023-05-08T17:40:06.758Z,11.83
2023-05-08T17:42:09.759Z,12.43
2023-05-08T17:44:12.563Z,9.90
2023-05-08T17:46:15.485Z,7.83
2023-05-08T17:48:18.382Z,6.43
2023-05-08T17:50:21.320Z,6.07
2023-05-08T17:52:23.992Z,5.30
2023-05-08T17:54:28.087Z,5.80
2023-05-08T17:56:31.872Z,5.83
2023-05-08T17:58:34.722Z,5.40
2023-05-08T18:00:37.624Z,5.40
2023-05-08T18:02:40.487Z,5.93
2023-05-08T18:04:43.235Z,5.90
2023-05-08T18:06:47.712Z,6.57
2023-05-08T18:08:50.489Z,7.60
2023-05-08T18:10:54.554Z,4.40
2023-05-08T18:12:57.317Z,4.13
2023-05-08T18:15:00.846Z,4.03
2023-05-08T18:17:03.716Z,5.27
2023-05-08T18:19:06.481Z,8.33
2023-05-08T18:21:09.328Z,5.93
2023-05-08T18:23:12.090Z,3.67
2023-05-08T18:25:14.856Z,4.37
2023-05-08T18:27:18.895Z,3.70
2023-05-08T18:29:21.736Z,6.00
2023-05-08T18:31:24.502Z,4.60
2023-05-08T18:33:27.220Z,3.90
2023-05-08T18:35:29.961Z,5.83
2023-05-08T18:37:32.729Z,4.17
2023-05-08T18:39:35.454Z,8.80
2023-05-08T18:41:38.245Z,7.53
2023-05-08T18:43:42.375Z,5.63
2023-05-08T18:45:45.145Z,44.43
2023-05-08T18:47:48.097Z,16.27
2023-05-08T18:49:51.761Z,21.47
2023-05-08T18:51:54.430Z,13.67
2023-05-08T18:53:57.292Z,6.93
2023-05-08T18:56:03.008Z,6.50
2023-05-08T18:58:06.419Z,6.07
2023-05-08T19:00:11.827Z,6.00
2023-05-08T19:02:14.618Z,4.50
2023-05-08T19:04:17.525Z,4.50
2023-05-08T19:06:20.369Z,4.73
2023-05-08T19:08:23.198Z,5.00
2023-05-08T19:10:25.920Z,6.37
2023-05-08T19:12:28.739Z,7.17
2023-05-08T19:14:31.491Z,6.53
2023-05-08T19:16:35.600Z,7.10
2023-05-08T19:18:38.319Z,7.00
2023-05-08T19:20:41.010Z,8.60
2023-05-08T19:22:43.685Z,8.40
2023-05-08T19:24:46.472Z,8.03
2023-05-08T19:26:49.117Z,8.00
2023-05-08T19:28:51.776Z,11.03
2023-05-08T19:30:54.444Z,10.57
2023-05-08T19:32:58.531Z,13.13
2023-05-08T19:35:02.580Z,13.00
2023-05-08T19:37:06.269Z,15.70
2023-05-08T19:39:09.159Z,18.87
2023-05-08T19:41:12.601Z,11.67
2023-05-08T19:43:15.601Z,10.87
2023-05-08T19:45:18.349Z,13.50
2023-05-08T19:47:21.200Z,15.60
2023-05-08T19:49:25.359Z,23.93
2023-05-08T19:51:28.162Z,29.03
2023-05-08T19:53:30.820Z,23.20
2023-05-08T19:55:33.471Z,38.73
2023-05-08T19:57:36.238Z,23.77
2023-05-08T19:59:39.030Z,20.40
2023-05-08T20:01:43.441Z,22.17
2023-05-08T20:03:46.479Z,20.90
2023-05-08T20:05:51.781Z,17.83
2023-05-08T20:07:55.625Z,34.00
2023-05-08T20:09:58.422Z,23.20
2023-05-08T20:12:01.257Z,18.10
2023-05-08T20:14:04.076Z,18.43
2023-05-08T20:16:07.294Z,16.17
2023-05-08T20:18:10.260Z,16.00
2023-05-08T20:20:13.954Z,16.50
2023-05-08T20:22:18.212Z,16.80
2023-05-08T20:24:20.907Z,16.17
2023-05-08T20:26:23.693Z,16.67
2023-05-08T20:28:26.456Z,20.50
2023-05-08T20:30:29.211Z,17.00
2023-05-08T20:32:32.007Z,15.63
2023-05-08T20:34:34.781Z,17.37
2023-05-08T20:36:37.559Z,16.77
2023-05-08T20:38:41.638Z,16.40
2023-05-08T20:40:44.352Z,17.37
2023-05-08T20:42:47.112Z,16.47
2023-05-08T20:44:49.841Z,17.03
2023-05-08T20:46:52.582Z,18.70
2023-05-08T20:48:55.314Z,18.07
2023-05-08T20:50:57.992Z,121.63
2023-05-08T20:53:00.702Z,38.67
2023-05-08T20:55:05.478Z,29.03
2023-05-08T20:57:08.233Z,19.77
2023-05-08T20:59:11.411Z,21.30
2023-05-08T21:01:14.180Z,18.47
2023-05-08T21:03:16.952Z,19.50
2023-05-08T21:05:19.844Z,16.80
2023-05-08T21:07:22.573Z,18.17
2023-05-08T21:09:25.509Z,17.80
2023-05-08T21:11:29.830Z,18.87
2023-05-08T21:13:32.532Z,20.20
2023-05-08T21:15:35.288Z,19.97
2023-05-08T21:17:38.050Z,21.03
2023-05-08T21:19:40.864Z,21.57
2023-05-08T21:21:43.606Z,18.87
2023-05-08T21:23:46.517Z,20.83
2023-05-08T21:25:50.655Z,17.07
2023-05-08T21:27:55.473Z,17.53
2023-05-08T21:29:58.379Z,18.47
2023-05-08T21:32:01.160Z,91.47
2023-05-08T21:34:04.199Z,74.17
2023-05-08T21:36:07.290Z,47.33
2023-05-08T21:38:11.996Z,69.83
2023-05-08T21:40:14.887Z,52.03
2023-05-08T21:42:17.605Z,57.90
2023-05-08T21:44:21.613Z,16.80
2023-05-08T21:46:24.332Z,16.27
2023-05-08T21:48:27.122Z,17.77
2023-05-08T21:50:29.869Z,20.60
2023-05-08T21:52:32.618Z,32.27
2023-05-08T21:54:35.405Z,22.77
2023-05-08T21:56:38.258Z,82.27
2023-05-08T21:58:41.064Z,90.27
2023-05-08T22:00:45.163Z,161.70
2023-05-08T22:02:48.229Z,35.67
2023-05-08T22:04:51.109Z,154.77
2023-05-08T22:06:53.839Z,172.13
2023-05-08T22:08:56.639Z,84.03
2023-05-08T22:10:59.340Z,153.83
2023-05-08T22:13:02.166Z,139.40
2023-05-08T22:15:09.458Z,32.13
2023-05-08T22:17:19.086Z,26.13
2023-05-08T22:19:21.796Z,77.97
2023-05-08T22:21:24.522Z,45.03
2023-05-08T22:23:27.200Z,26.03
2023-05-08T22:25:29.974Z,16.87
2023-05-08T22:27:32.705Z,16.50
2023-05-08T22:29:35.423Z,16.13
2023-05-08T22:31:38.160Z,16.43
2023-05-08T22:33:42.199Z,16.77
2023-05-08T22:35:44.832Z,16.87
2023-05-08T22:37:47.525Z,17.33
2023-05-08T22:39:50.509Z,17.33
2023-05-08T22:41:53.218Z,28.77
2023-05-08T22:43:56.969Z,27.40
2023-05-08T22:46:00.478Z,19.40
2023-05-08T22:48:04.425Z,18.77
2023-05-08T22:50:11.574Z,24.10
2023-05-08T22:52:14.206Z,24.30
2023-05-08T22:54:16.911Z,34.67
2023-05-08T22:56:19.528Z,43.93
2023-05-08T22:58:22.235Z,18.63
2023-05-08T23:00:25.076Z,23.97
2023-05-08T23:02:32.784Z,25.47
2023-05-08T23:04:35.611Z,29.77
2023-05-08T23:06:39.702Z,28.17
2023-05-08T23:08:42.381Z,29.07
2023-05-08T23:10:45.316Z,21.47
2023-05-08T23:12:48.019Z,19.20
2023-05-08T23:14:50.734Z,18.80
2023-05-08T23:16:53.406Z,15.17
2023-05-08T23:18:56.350Z,11.87
2023-05-08T23:20:59.125Z,10.80
2023-05-08T23:23:03.110Z,11.10
2023-05-08T23:25:06.896Z,10.77
2023-05-08T23:27:09.569Z,10.77
2023-05-08T23:29:12.139Z,10.00
2023-05-08T23:31:14.865Z,9.13
2023-05-08T23:33:18.965Z,9.43
2023-05-08T23:35:21.698Z,10.20
2023-05-08T23:37:24.646Z,11.03
2023-05-08T23:39:28.770Z,12.90
2023-05-08T23:41:32.310Z,31.23
2023-05-08T23:43:35.003Z,17.27
2023-05-08T23:45:37.736Z,29.77
2023-05-08T23:47:40.548Z,40.73
2023-05-08T23:49:43.301Z,37.57
2023-05-08T23:51:46.227Z,28.77
2023-05-08T23:53:49.991Z,23.00
2023-05-08T23:55:54.040Z,35.03
2023-05-08T23:57:57.506Z,31.37
